createdAt,value
2019-02-14T00:00:27.054Z,97365.70
2019-02-14T00:01:30.573Z,97369.17
2019-02-14T00:02:34.069Z,97378.63
2019-02-14T00:03:37.573Z,97369.55
2019-02-14T00:04:41.006Z,97381.00
2019-02-14T00:05:44.466Z,97382.04
2019-02-14T00:06:47.898Z,97381.05
2019-02-14T00:07:51.397Z,97378.74
2019-02-14T00:08:54.828Z,97380.25
2019-02-14T00:09:58.431Z,97379.09
2019-02-14T00:11:01.899Z,97377.51
2019-02-14T00:12:05.394Z,97375.48
2019-02-14T00:13:08.894Z,97376.09
2019-02-14T00:14:12.338Z,97371.48
2019-02-14T00:15:15.833Z,97371.67
2019-02-14T00:16:19.315Z,97378.51
2019-02-14T00:17:22.752Z,97370.77
2019-02-14T00:18:26.248Z,97374.44
2019-02-14T00:19:29.683Z,97368.75
2019-02-14T00:20:33.200Z,97366.21
2019-02-14T00:21:36.682Z,97374.28
2019-02-14T00:22:40.211Z,97375.97
2019-02-14T00:23:43.627Z,97366.83
2019-02-14T00:24:47.065Z,97364.77
2019-02-14T00:25:50.493Z,97364.72
2019-02-14T00:26:53.949Z,97365.53
2019-02-14T00:27:57.386Z,97373.58
2019-02-14T00:29:00.826Z,97371.16
2019-02-14T00:30:05.476Z,97370.52
2019-02-14T00:31:08.899Z,97373.13
2019-02-14T00:32:12.414Z,97377.59
2019-02-14T00:33:15.852Z,97374.07
2019-02-14T00:34:19.313Z,97372.02
2019-02-14T00:35:25.053Z,97372.02
2019-02-14T00:36:27.920Z,97367.58
2019-02-14T00:37:31.368Z,97367.23
2019-02-14T00:38:34.792Z,97367.15
2019-02-14T00:39:38.227Z,97364.37
2019-02-14T00:40:41.655Z,97356.13
2019-02-14T00:41:45.119Z,97361.89
2019-02-14T00:42:48.584Z,97363.91
2019-02-14T00:43:52.023Z,97362.70
2019-02-14T00:44:55.532Z,97364.98
2019-02-14T00:45:59.041Z,97369.05
2019-02-14T00:47:02.570Z,97360.77
2019-02-14T00:48:06.012Z,97359.99
2019-02-14T00:49:09.441Z,97365.19
2019-02-14T00:50:12.941Z,97357.22
2019-02-14T00:51:16.375Z,97356.21
2019-02-14T00:52:19.809Z,97356.38
2019-02-14T00:53:23.266Z,97354.56
2019-02-14T00:54:26.707Z,97353.79
2019-02-14T00:55:30.142Z,97354.77
2019-02-14T00:56:33.573Z,97358.12
2019-02-14T00:57:37.032Z,97356.82
2019-02-14T00:58:40.532Z,97358.12
2019-02-14T00:59:43.962Z,97352.72
2019-02-14T01:00:47.471Z,97355.95
2019-02-14T01:01:50.936Z,97359.09
2019-02-14T01:02:54.386Z,97359.15
2019-02-14T01:03:57.819Z,97361.69
2019-02-14T01:05:01.264Z,97358.81
2019-02-14T01:06:04.683Z,97362.64
2019-02-14T01:07:08.581Z,97366.08
2019-02-14T01:08:12.038Z,97364.55
2019-02-14T01:09:15.478Z,97358.60
2019-02-14T01:10:18.975Z,97364.05
2019-02-14T01:11:22.418Z,97360.88
2019-02-14T01:12:25.921Z,97358.81
2019-02-14T01:13:29.374Z,97354.16
2019-02-14T01:14:32.809Z,97355.95
2019-02-14T01:15:36.525Z,97352.78
2019-02-14T01:16:40.036Z,97353.77
2019-02-14T01:17:43.540Z,97355.63
2019-02-14T01:18:46.994Z,97355.17
2019-02-14T01:19:50.443Z,97348.48
2019-02-14T01:20:53.875Z,97351.07
2019-02-14T01:21:57.369Z,97353.72
2019-02-14T01:23:00.801Z,97351.91
2019-02-14T01:24:04.331Z,97340.77
2019-02-14T01:25:07.900Z,97344.95
2019-02-14T01:26:11.324Z,97341.00
2019-02-14T01:27:14.751Z,97338.64
2019-02-14T01:28:18.246Z,97344.64
2019-02-14T01:29:21.870Z,97339.70
2019-02-14T01:30:25.300Z,97339.22
2019-02-14T01:31:28.731Z,97334.36
2019-02-14T01:32:32.162Z,97332.52
2019-02-14T01:33:35.670Z,97333.33
2019-02-14T01:34:39.197Z,97331.22
2019-02-14T01:35:42.626Z,97325.66
2019-02-14T01:36:46.131Z,97327.27
2019-02-14T01:37:49.561Z,97323.38
2019-02-14T01:38:53.060Z,97325.02
2019-02-14T01:39:56.509Z,97324.92
2019-02-14T01:40:59.932Z,97333.33
2019-02-14T01:42:03.371Z,97329.75
2019-02-14T01:43:06.794Z,97329.75
2019-02-14T01:44:10.220Z,97332.63
2019-02-14T01:45:13.667Z,97323.08
2019-02-14T01:46:17.104Z,97328.85
2019-02-14T01:47:20.551Z,97328.45
2019-02-14T01:48:23.985Z,97326.36
2019-02-14T01:49:27.461Z,97324.45
2019-02-14T01:50:31.065Z,97325.52
2019-02-14T01:51:34.495Z,97329.02
2019-02-14T01:52:37.923Z,97325.86
2019-02-14T01:53:41.355Z,97327.55
2019-02-14T01:54:45.019Z,97328.09
2019-02-14T01:55:48.431Z,97324.22
2019-02-14T01:56:51.947Z,97324.16
2019-02-14T01:57:55.378Z,97321.05
2019-02-14T01:58:58.812Z,97322.38
2019-02-14T02:00:02.478Z,97313.08
2019-02-14T02:01:06.014Z,97311.63
2019-02-14T02:02:09.539Z,97307.89
2019-02-14T02:03:12.975Z,97311.02
2019-02-14T02:04:16.420Z,97305.02
2019-02-14T02:05:19.862Z,97311.64
2019-02-14T02:06:23.450Z,97298.61
2019-02-14T02:07:26.990Z,97305.20
2019-02-14T02:08:30.404Z,97303.85
2019-02-14T02:09:33.919Z,97304.42
2019-02-14T02:10:37.435Z,97301.31
2019-02-14T02:11:40.941Z,97299.52
2019-02-14T02:12:44.429Z,97299.57
2019-02-14T02:13:47.929Z,97300.56
2019-02-14T02:14:51.354Z,97296.64
2019-02-14T02:15:54.792Z,97293.73
2019-02-14T02:16:58.315Z,97298.81
2019-02-14T02:18:01.812Z,97300.61
2019-02-14T02:19:05.312Z,97292.18
2019-02-14T02:20:10.180Z,97290.59
2019-02-14T02:21:13.618Z,97293.72
2019-02-14T02:22:17.141Z,97293.19
2019-02-14T02:23:20.590Z,97291.89
2019-02-14T02:24:24.026Z,97288.00
2019-02-14T02:25:27.523Z,97292.54
2019-02-14T02:26:30.968Z,97290.08
2019-02-14T02:27:34.396Z,97295.30
2019-02-14T02:28:37.832Z,97288.28
2019-02-14T02:29:41.262Z,97292.15
2019-02-14T02:30:44.690Z,97295.26
2019-02-14T02:31:48.226Z,97291.84
2019-02-14T02:32:51.746Z,97293.91
2019-02-14T02:33:55.168Z,97294.01
2019-02-14T02:34:58.617Z,97293.28
2019-02-14T02:36:02.050Z,97293.56
2019-02-14T02:37:05.510Z,97296.39
2019-02-14T02:38:09.015Z,97302.05
2019-02-14T02:39:12.440Z,97297.34
2019-02-14T02:40:15.903Z,97300.11
2019-02-14T02:41:19.347Z,97297.73
2019-02-14T02:42:23.030Z,97303.85
2019-02-14T02:43:26.504Z,97305.41
2019-02-14T02:44:30.006Z,97307.52
2019-02-14T02:45:33.443Z,97306.91
2019-02-14T02:46:36.883Z,97311.12
2019-02-14T02:47:40.482Z,97311.33
2019-02-14T02:48:43.943Z,97306.73
2019-02-14T02:49:47.362Z,97308.59
2019-02-14T02:50:50.873Z,97312.20
2019-02-14T02:51:54.299Z,97311.59
2019-02-14T02:52:57.828Z,97311.80
2019-02-14T02:54:01.287Z,97309.69
2019-02-14T02:55:06.159Z,97314.05
2019-02-14T02:56:09.611Z,97315.34
2019-02-14T02:57:13.046Z,97317.71
2019-02-14T02:58:16.577Z,97311.20
2019-02-14T02:59:20.028Z,97310.10
2019-02-14T03:00:23.527Z,97310.55
2019-02-14T03:01:27.098Z,97310.80
2019-02-14T03:02:30.541Z,97312.18
2019-02-14T03:03:33.992Z,97313.73
2019-02-14T03:04:37.439Z,97317.63
2019-02-14T03:05:40.882Z,97313.71
2019-02-14T03:06:44.383Z,97315.84
2019-02-14T03:07:47.877Z,97318.23
2019-02-14T03:08:51.403Z,97313.53
2019-02-14T03:09:54.837Z,97317.11
2019-02-14T03:10:58.275Z,97315.76
2019-02-14T03:12:01.779Z,97318.13
2019-02-14T03:13:05.207Z,97327.26
2019-02-14T03:14:08.683Z,97325.91
2019-02-14T03:15:14.170Z,97322.27
2019-02-14T03:16:17.557Z,97329.02
2019-02-14T03:17:21.000Z,97329.77
2019-02-14T03:18:24.422Z,97334.36
2019-02-14T03:19:27.874Z,97332.78
2019-02-14T03:20:31.311Z,97341.69
2019-02-14T03:21:34.745Z,97339.89
2019-02-14T03:22:38.191Z,97343.79
2019-02-14T03:23:41.622Z,97349.70
2019-02-14T03:24:45.066Z,97347.91
2019-02-14T03:25:48.520Z,97352.30
2019-02-14T03:26:51.954Z,97343.48
2019-02-14T03:27:55.385Z,97349.21
2019-02-14T03:28:58.861Z,97349.45
2019-02-14T03:30:02.271Z,97343.48
2019-02-14T03:31:05.723Z,97339.84
2019-02-14T03:32:09.174Z,97341.32
2019-02-14T03:33:12.594Z,97342.19
2019-02-14T03:34:16.026Z,97346.52
2019-02-14T03:35:19.473Z,97343.61
2019-02-14T03:36:22.900Z,97344.38
2019-02-14T03:37:26.403Z,97345.73
2019-02-14T03:38:29.831Z,97347.53
2019-02-14T03:39:33.278Z,97347.24
2019-02-14T03:40:36.716Z,97351.37
2019-02-14T03:41:40.244Z,97350.81
2019-02-14T03:42:43.676Z,97351.34
2019-02-14T03:43:47.121Z,97354.25
2019-02-14T03:44:50.552Z,97349.14
2019-02-14T03:45:54.005Z,97349.72
2019-02-14T03:46:57.448Z,97352.31
2019-02-14T03:48:00.950Z,97349.43
2019-02-14T03:49:04.470Z,97351.56
2019-02-14T03:50:10.344Z,97348.19
2019-02-14T03:51:13.791Z,97349.26
2019-02-14T03:52:17.296Z,97353.61
2019-02-14T03:53:20.808Z,97353.04
2019-02-14T03:54:24.247Z,97356.13
2019-02-14T03:55:27.681Z,97353.79
2019-02-14T03:56:31.145Z,97348.11
2019-02-14T03:57:34.591Z,97349.14
2019-02-14T03:58:38.101Z,97345.73
2019-02-14T03:59:41.586Z,97355.38
2019-02-14T04:00:45.021Z,97350.21
2019-02-14T04:01:48.467Z,97347.41
2019-02-14T04:02:51.982Z,97349.00
2019-02-14T04:03:55.408Z,97350.01
2019-02-14T04:04:58.842Z,97347.83
2019-02-14T04:06:02.301Z,97347.38
2019-02-14T04:07:05.744Z,97345.31
2019-02-14T04:08:09.178Z,97355.05
2019-02-14T04:09:12.601Z,97349.41
2019-02-14T04:10:16.023Z,97356.16
2019-02-14T04:11:19.449Z,97364.16
2019-02-14T04:12:22.898Z,97363.35
2019-02-14T04:13:26.326Z,97360.50
2019-02-14T04:14:29.756Z,97362.34
2019-02-14T04:15:33.331Z,97358.66
2019-02-14T04:16:36.756Z,97361.25
2019-02-14T04:17:40.366Z,97364.67
2019-02-14T04:18:43.815Z,97354.09
2019-02-14T04:19:47.325Z,97353.80
2019-02-14T04:20:50.764Z,97349.52
2019-02-14T04:21:54.261Z,97351.56
2019-02-14T04:22:57.722Z,97344.38
2019-02-14T04:24:01.148Z,97344.87
2019-02-14T04:25:06.019Z,97336.55
2019-02-14T04:26:09.467Z,97337.34
2019-02-14T04:27:12.963Z,97335.41
2019-02-14T04:28:16.411Z,97334.53
2019-02-14T04:29:19.853Z,97332.00
2019-02-14T04:30:23.309Z,97334.94
2019-02-14T04:31:26.739Z,97333.41
2019-02-14T04:32:30.168Z,97334.16
2019-02-14T04:33:33.615Z,97331.53
2019-02-14T04:34:37.073Z,97329.91
2019-02-14T04:35:40.520Z,97336.81
2019-02-14T04:36:43.946Z,97335.44
2019-02-14T04:37:47.373Z,97330.47
2019-02-14T04:38:50.828Z,97328.94
2019-02-14T04:39:54.263Z,97332.67
2019-02-14T04:40:57.689Z,97327.98
2019-02-14T04:42:01.105Z,97332.37
2019-02-14T04:43:04.532Z,97334.92
2019-02-14T04:44:07.981Z,97332.03
2019-02-14T04:45:12.775Z,97331.05
2019-02-14T04:46:16.200Z,97333.08
2019-02-14T04:47:19.630Z,97336.39
2019-02-14T04:48:23.049Z,97332.75
2019-02-14T04:49:26.512Z,97334.85
2019-02-14T04:50:29.972Z,97341.10
2019-02-14T04:51:33.412Z,97345.70
2019-02-14T04:52:36.842Z,97352.85
2019-02-14T04:53:40.305Z,97346.06
2019-02-14T04:54:43.773Z,97351.20
2019-02-14T04:55:47.286Z,97349.56
2019-02-14T04:56:50.719Z,97350.34
2019-02-14T04:57:54.163Z,97351.05
2019-02-14T04:58:57.596Z,97360.03
2019-02-14T05:00:01.038Z,97360.88
2019-02-14T05:01:04.536Z,97356.73
2019-02-14T05:02:07.962Z,97363.09
2019-02-14T05:03:11.399Z,97361.20
2019-02-14T05:04:14.837Z,97360.19
2019-02-14T05:05:18.272Z,97366.13
2019-02-14T05:06:21.699Z,97362.39
2019-02-14T05:07:25.121Z,97366.61
2019-02-14T05:08:28.546Z,97369.66
2019-02-14T05:09:31.970Z,97371.70
2019-02-14T05:10:35.417Z,97364.67
2019-02-14T05:11:38.876Z,97368.66
2019-02-14T05:12:42.299Z,97359.95
2019-02-14T05:13:45.728Z,97363.67
2019-02-14T05:14:49.165Z,97370.70
2019-02-14T05:15:52.611Z,97365.00
2019-02-14T05:16:56.041Z,97362.06
2019-02-14T05:17:59.467Z,97365.39
2019-02-14T05:19:02.896Z,97372.22
2019-02-14T05:20:10.909Z,97371.91
2019-02-14T05:21:14.352Z,97366.40
2019-02-14T05:22:17.802Z,97367.65
2019-02-14T05:23:21.233Z,97368.66
2019-02-14T05:24:24.726Z,97366.02
2019-02-14T05:25:28.218Z,97370.50
2019-02-14T05:26:31.687Z,97367.17
2019-02-14T05:27:35.127Z,97368.50
2019-02-14T05:28:38.555Z,97366.73
2019-02-14T05:29:41.988Z,97368.17
2019-02-14T05:30:45.564Z,97373.80
2019-02-14T05:31:49.015Z,97377.93
2019-02-14T05:32:52.451Z,97377.13
2019-02-14T05:33:55.894Z,97375.34
2019-02-14T05:34:59.324Z,97380.22
2019-02-14T05:36:02.766Z,97384.38
2019-02-14T05:37:06.233Z,97384.38
2019-02-14T05:38:09.660Z,97384.89
2019-02-14T05:39:13.103Z,97391.89
2019-02-14T05:40:16.539Z,97393.70
2019-02-14T05:41:19.977Z,97391.89
2019-02-14T05:42:25.109Z,97390.84
2019-02-14T05:43:28.667Z,97385.36
2019-02-14T05:44:32.093Z,97387.64
2019-02-14T05:45:35.513Z,97374.70
2019-02-14T05:46:38.926Z,97383.26
2019-02-14T05:47:42.719Z,97385.59
2019-02-14T05:48:46.146Z,97384.91
2019-02-14T05:49:49.580Z,97398.73
2019-02-14T05:50:52.995Z,97395.64
2019-02-14T05:51:56.423Z,97405.20
2019-02-14T05:52:59.870Z,97397.70
2019-02-14T05:54:03.394Z,97397.86
2019-02-14T05:55:09.363Z,97397.66
2019-02-14T05:56:12.857Z,97393.50
2019-02-14T05:57:16.278Z,97394.47
2019-02-14T05:58:19.725Z,97395.45
2019-02-14T05:59:23.157Z,97387.95
2019-02-14T06:00:26.588Z,97390.86
2019-02-14T06:01:30.111Z,97387.27
2019-02-14T06:02:33.561Z,97389.66
2019-02-14T06:03:37.055Z,97389.13
2019-02-14T06:04:40.494Z,97386.02
2019-02-14T06:05:43.926Z,97390.62
2019-02-14T06:06:47.360Z,97385.69
2019-02-14T06:07:50.859Z,97390.92
2019-02-14T06:08:54.347Z,97389.38
2019-02-14T06:09:57.785Z,97398.36
2019-02-14T06:11:01.225Z,97400.95
2019-02-14T06:12:04.657Z,97408.58
2019-02-14T06:13:08.108Z,97405.50
2019-02-14T06:14:11.538Z,97398.69
2019-02-14T06:15:15.203Z,97402.34
2019-02-14T06:16:18.633Z,97398.23
2019-02-14T06:17:22.060Z,97392.83
2019-02-14T06:18:25.504Z,97392.48
2019-02-14T06:19:28.962Z,97385.01
2019-02-14T06:20:32.417Z,97385.36
2019-02-14T06:21:35.849Z,97383.33
2019-02-14T06:22:39.353Z,97382.30
2019-02-14T06:23:42.794Z,97388.77
2019-02-14T06:24:46.252Z,97381.05
2019-02-14T06:25:49.688Z,97386.56
2019-02-14T06:26:53.121Z,97390.75
2019-02-14T06:27:56.618Z,97395.95
2019-02-14T06:29:00.061Z,97397.50
2019-02-14T06:30:04.056Z,97397.44
2019-02-14T06:31:07.543Z,97403.84
2019-02-14T06:32:11.057Z,97403.23
2019-02-14T06:33:14.492Z,97408.90
2019-02-14T06:34:17.945Z,97408.19
2019-02-14T06:35:21.525Z,97409.93
2019-02-14T06:36:24.971Z,97412.20
2019-02-14T06:37:28.401Z,97409.61
2019-02-14T06:38:31.899Z,97416.64
2019-02-14T06:39:35.378Z,97413.77
2019-02-14T06:40:38.807Z,97416.87
2019-02-14T06:41:42.250Z,97419.73
2019-02-14T06:42:45.693Z,97416.85
2019-02-14T06:43:49.112Z,97431.31
2019-02-14T06:44:52.567Z,97432.87
2019-02-14T06:45:56.017Z,97431.77
2019-02-14T06:46:59.525Z,97430.40
2019-02-14T06:48:02.955Z,97435.33
2019-02-14T06:49:06.380Z,97434.13
2019-02-14T06:50:10.341Z,97438.34
2019-02-14T06:51:13.856Z,97436.01
2019-02-14T06:52:17.302Z,97439.05
2019-02-14T06:53:20.816Z,97440.33
2019-02-14T06:54:24.257Z,97440.23
2019-02-14T06:55:27.793Z,97433.47
2019-02-14T06:56:31.254Z,97429.27
2019-02-14T06:57:34.690Z,97434.92
2019-02-14T06:58:38.128Z,97435.67
2019-02-14T06:59:41.602Z,97437.23
2019-02-14T07:00:45.037Z,97440.30
2019-02-14T07:01:48.487Z,97439.21
2019-02-14T07:02:51.899Z,97438.64
2019-02-14T07:03:55.329Z,97439.92
2019-02-14T07:04:58.756Z,97440.80
2019-02-14T07:06:02.287Z,97436.91
2019-02-14T07:07:05.714Z,97435.62
2019-02-14T07:08:09.146Z,97431.73
2019-02-14T07:09:12.569Z,97434.85
2019-02-14T07:10:16.004Z,97432.54
2019-02-14T07:11:19.469Z,97434.88
2019-02-14T07:12:22.911Z,97439.81
2019-02-14T07:13:26.414Z,97438.56
2019-02-14T07:14:29.859Z,97448.16
2019-02-14T07:15:33.306Z,97451.38
2019-02-14T07:16:36.743Z,97451.36
2019-02-14T07:17:40.198Z,97450.88
2019-02-14T07:18:43.646Z,97448.00
2019-02-14T07:19:47.180Z,97448.31
2019-02-14T07:20:50.611Z,97451.40
2019-02-14T07:21:54.063Z,97449.30
2019-02-14T07:22:57.500Z,97444.12
2019-02-14T07:24:00.946Z,97443.12
2019-02-14T07:25:05.831Z,97442.31
2019-02-14T07:26:09.259Z,97440.97
2019-02-14T07:27:12.744Z,97444.30
2019-02-14T07:28:16.170Z,97442.74
2019-02-14T07:29:19.599Z,97447.67
2019-02-14T07:30:25.126Z,97446.68
2019-02-14T07:31:28.587Z,97440.92
2019-02-14T07:32:32.039Z,97445.99
2019-02-14T07:33:35.493Z,97443.60
2019-02-14T07:34:38.926Z,97447.99
2019-02-14T07:35:42.359Z,97448.46
2019-02-14T07:36:45.792Z,97447.89
2019-02-14T07:37:49.266Z,97454.08
2019-02-14T07:38:52.830Z,97455.84
2019-02-14T07:39:56.282Z,97461.31
2019-02-14T07:40:59.701Z,97466.23
2019-02-14T07:42:03.132Z,97461.50
2019-02-14T07:43:06.645Z,97471.78
2019-02-14T07:44:10.167Z,97469.42
2019-02-14T07:45:15.350Z,97466.81
2019-02-14T07:46:22.695Z,97464.74
2019-02-14T07:47:23.932Z,97457.55
2019-02-14T07:48:27.397Z,97457.60
2019-02-14T07:49:30.837Z,97449.31
2019-02-14T07:50:34.330Z,97454.74
2019-02-14T07:51:37.760Z,97446.38
2019-02-14T07:52:41.264Z,97450.73
2019-02-14T07:53:44.706Z,97454.69
2019-02-14T07:54:48.140Z,97450.61
2019-02-14T07:55:51.578Z,97454.56
2019-02-14T07:56:55.029Z,97453.23
2019-02-14T07:57:58.460Z,97456.51
2019-02-14T07:59:01.898Z,97455.62
2019-02-14T08:00:08.804Z,97452.38
2019-02-14T08:01:12.311Z,97457.30
2019-02-14T08:02:15.740Z,97464.37
2019-02-14T08:03:19.238Z,97457.58
2019-02-14T08:04:22.689Z,97451.14
2019-02-14T08:05:26.202Z,97456.95
2019-02-14T08:06:29.628Z,97448.89
2019-02-14T08:07:35.938Z,97444.04
2019-02-14T08:08:38.220Z,97449.49
2019-02-14T08:09:41.747Z,97449.18
2019-02-14T08:10:45.222Z,97446.73
2019-02-14T08:11:48.727Z,97449.75
2019-02-14T08:12:52.156Z,97448.89
2019-02-14T08:13:55.582Z,97449.25
2019-02-14T08:14:59.041Z,97450.20
2019-02-14T08:16:02.599Z,97447.58
2019-02-14T08:17:06.041Z,97451.44
2019-02-14T08:18:09.539Z,97454.50
2019-02-14T08:19:12.967Z,97449.78
2019-02-14T08:20:20.673Z,97450.73
2019-02-14T08:21:24.118Z,97457.20
2019-02-14T08:22:27.621Z,97449.39
2019-02-14T08:23:31.061Z,97455.50
2019-02-14T08:24:34.493Z,97452.54
2019-02-14T08:25:37.960Z,97447.95
2019-02-14T08:26:41.421Z,97450.91
2019-02-14T08:27:44.857Z,97448.17
2019-02-14T08:28:48.287Z,97445.91
2019-02-14T08:29:51.877Z,97448.17
2019-02-14T08:30:55.352Z,97444.20
2019-02-14T08:31:58.835Z,97449.88
2019-02-14T08:33:02.277Z,97452.22
2019-02-14T08:34:05.708Z,97448.70
2019-02-14T08:35:09.210Z,97449.59
2019-02-14T08:36:12.658Z,97449.70
2019-02-14T08:37:16.131Z,97454.20
2019-02-14T08:38:19.565Z,97454.87
2019-02-14T08:39:23.289Z,97454.97
2019-02-14T08:40:29.530Z,97457.88
2019-02-14T08:41:32.971Z,97461.48
2019-02-14T08:42:36.432Z,97457.24
2019-02-14T08:43:39.872Z,97470.26
2019-02-14T08:44:43.305Z,97472.30
2019-02-14T08:45:46.753Z,97466.76
2019-02-14T08:46:50.323Z,97470.33
2019-02-14T08:47:53.721Z,97463.77
2019-02-14T08:48:57.160Z,97463.25
2019-02-14T08:50:00.580Z,97469.42
2019-02-14T08:51:04.030Z,97464.95
2019-02-14T08:52:07.486Z,97472.80
2019-02-14T08:53:10.935Z,97470.16
2019-02-14T08:54:14.360Z,97469.30
2019-02-14T08:55:17.792Z,97473.38
2019-02-14T08:56:21.223Z,97467.34
2019-02-14T08:57:24.755Z,97465.82
2019-02-14T08:58:28.200Z,97468.66
2019-02-14T08:59:31.706Z,97471.73
2019-02-14T09:00:35.371Z,97474.25
2019-02-14T09:01:38.850Z,97479.13
2019-02-14T09:02:42.514Z,97472.27
2019-02-14T09:03:45.963Z,97471.17
2019-02-14T09:04:49.392Z,97471.40
2019-02-14T09:05:52.851Z,97466.62
2019-02-14T09:06:56.266Z,97463.63
2019-02-14T09:07:59.789Z,97459.38
2019-02-14T09:09:04.502Z,97464.19
2019-02-14T09:10:10.981Z,97465.45
2019-02-14T09:11:14.485Z,97459.58
2019-02-14T09:12:18.004Z,97462.19
2019-02-14T09:13:21.483Z,97472.70
2019-02-14T09:14:24.942Z,97474.00
2019-02-14T09:15:28.506Z,97471.58
2019-02-14T09:16:31.958Z,97468.09
2019-02-14T09:17:35.555Z,97467.92
2019-02-14T09:18:39.023Z,97464.53
2019-02-14T09:19:42.479Z,97462.53
2019-02-14T09:20:46.030Z,97462.69
2019-02-14T09:21:49.484Z,97462.69
2019-02-14T09:22:52.984Z,97459.25
2019-02-14T09:23:56.431Z,97464.24
2019-02-14T09:24:59.954Z,97464.84
2019-02-14T09:26:03.544Z,97463.13
2019-02-14T09:27:06.968Z,97461.55
2019-02-14T09:28:10.415Z,97458.53
2019-02-14T09:29:14.471Z,97463.81
2019-02-14T09:30:17.966Z,97461.07
2019-02-14T09:31:21.473Z,97463.63
2019-02-14T09:32:25.869Z,97462.27
2019-02-14T09:33:29.315Z,97469.80
2019-02-14T09:34:32.779Z,97469.09
2019-02-14T09:35:36.230Z,97465.96
2019-02-14T09:36:39.739Z,97463.36
2019-02-14T09:37:44.871Z,97464.77
2019-02-14T09:38:48.315Z,97459.22
2019-02-14T09:39:51.776Z,97461.58
2019-02-14T09:40:55.292Z,97459.56
2019-02-14T09:41:58.726Z,97455.41
2019-02-14T09:43:02.165Z,97455.52
2019-02-14T09:44:05.722Z,97450.60
2019-02-14T09:45:11.510Z,97443.81
2019-02-14T09:46:14.943Z,97448.08
2019-02-14T09:47:18.490Z,97447.80
2019-02-14T09:48:21.920Z,97452.35
2019-02-14T09:49:25.350Z,97455.84
2019-02-14T09:50:28.809Z,97453.85
2019-02-14T09:51:32.240Z,97448.81
2019-02-14T09:52:35.689Z,97446.52
2019-02-14T09:53:39.137Z,97451.33
2019-02-14T09:54:42.554Z,97448.63
2019-02-14T09:55:46.082Z,97455.59
2019-02-14T09:56:49.523Z,97442.53
2019-02-14T09:57:52.955Z,97448.20
2019-02-14T09:58:56.473Z,97444.16
2019-02-14T09:59:59.904Z,97442.25
2019-02-14T10:01:03.365Z,97438.92
2019-02-14T10:02:06.935Z,97437.50
2019-02-14T10:03:10.372Z,97441.75
2019-02-14T10:04:13.879Z,97442.84
2019-02-14T10:05:17.391Z,97450.48
2019-02-14T10:06:20.898Z,97450.20
2019-02-14T10:07:24.442Z,97447.53
2019-02-14T10:08:27.956Z,97448.63
2019-02-14T10:09:31.371Z,97452.86
2019-02-14T10:10:34.822Z,97443.41
2019-02-14T10:11:38.271Z,97450.23
2019-02-14T10:12:41.732Z,97442.00
2019-02-14T10:13:45.233Z,97450.70
2019-02-14T10:14:48.757Z,97450.44
2019-02-14T10:15:52.198Z,97455.06
2019-02-14T10:16:55.668Z,97450.44
2019-02-14T10:17:59.131Z,97448.59
2019-02-14T10:19:02.553Z,97446.28
2019-02-14T10:20:12.193Z,97445.51
2019-02-14T10:21:15.761Z,97447.80
2019-02-14T10:22:19.286Z,97439.28
2019-02-14T10:23:22.733Z,97445.83
2019-02-14T10:24:26.165Z,97448.52
2019-02-14T10:25:29.601Z,97448.52
2019-02-14T10:26:33.027Z,97446.89
2019-02-14T10:27:36.481Z,97442.19
2019-02-14T10:28:39.912Z,97442.19
2019-02-14T10:29:43.346Z,97449.30
2019-02-14T10:30:46.769Z,97446.67
2019-02-14T10:31:50.191Z,97439.87
2019-02-14T10:32:53.709Z,97438.78
2019-02-14T10:33:57.133Z,97438.63
2019-02-14T10:35:00.568Z,97447.08
2019-02-14T10:36:04.562Z,97444.70
2019-02-14T10:37:08.145Z,97438.38
2019-02-14T10:38:11.585Z,97434.90
2019-02-14T10:39:15.100Z,97440.83
2019-02-14T10:40:18.534Z,97440.83
2019-02-14T10:41:21.982Z,97432.13
2019-02-14T10:42:25.410Z,97433.80
2019-02-14T10:43:28.894Z,97424.82
2019-02-14T10:44:32.415Z,97422.98
2019-02-14T10:45:35.917Z,97425.97
2019-02-14T10:46:39.419Z,97433.99
2019-02-14T10:47:43.018Z,97430.39
2019-02-14T10:48:46.468Z,97435.27
2019-02-14T10:49:49.972Z,97424.16
2019-02-14T10:50:53.435Z,97421.13
2019-02-14T10:51:56.896Z,97419.13
2019-02-14T10:53:00.407Z,97415.20
2019-02-14T10:54:03.885Z,97411.17
2019-02-14T10:55:09.939Z,97415.15
2019-02-14T10:56:13.441Z,97409.13
2019-02-14T10:57:16.946Z,97415.81
2019-02-14T10:58:20.414Z,97414.51
2019-02-14T10:59:23.863Z,97419.50
2019-02-14T11:00:27.459Z,97415.20
2019-02-14T11:01:30.977Z,97420.77
2019-02-14T11:02:34.407Z,97406.82
2019-02-14T11:03:37.900Z,97410.13
2019-02-14T11:04:41.431Z,97407.69
2019-02-14T11:05:44.892Z,97401.70
2019-02-14T11:06:48.443Z,97400.41
2019-02-14T11:07:51.967Z,97402.83
2019-02-14T11:08:55.396Z,97399.78
2019-02-14T11:09:58.908Z,97399.07
2019-02-14T11:11:02.412Z,97399.05
2019-02-14T11:12:06.006Z,97402.47
2019-02-14T11:13:09.455Z,97395.16
2019-02-14T11:14:12.939Z,97399.31
2019-02-14T11:15:19.053Z,97390.06
2019-02-14T11:16:22.505Z,97397.84
2019-02-14T11:17:25.945Z,97393.62
2019-02-14T11:18:29.528Z,97386.66
2019-02-14T11:19:32.898Z,97386.79
2019-02-14T11:20:36.523Z,97385.09
2019-02-14T11:21:40.026Z,97389.83
2019-02-14T11:22:43.583Z,97387.44
2019-02-14T11:23:47.016Z,97369.20
2019-02-14T11:24:50.442Z,97363.59
2019-02-14T11:25:53.885Z,97365.36
2019-02-14T11:26:57.402Z,97362.31
2019-02-14T11:28:00.975Z,97360.91
2019-02-14T11:29:04.476Z,97363.69
2019-02-14T11:30:11.244Z,97364.61
2019-02-14T11:31:14.688Z,97360.88
2019-02-14T11:32:18.143Z,97352.84
2019-02-14T11:33:21.611Z,97354.11
2019-02-14T11:34:25.043Z,97351.40
2019-02-14T11:35:28.539Z,97354.33
2019-02-14T11:36:32.177Z,97350.66
2019-02-14T11:37:35.682Z,97354.16
2019-02-14T11:38:40.814Z,97348.41
2019-02-14T11:39:44.517Z,97346.55
2019-02-14T11:40:48.021Z,97345.94
2019-02-14T11:41:51.495Z,97341.19
2019-02-14T11:42:54.956Z,97341.02
2019-02-14T11:43:58.467Z,97326.58
2019-02-14T11:45:01.891Z,97326.58
2019-02-14T11:46:05.464Z,97335.52
2019-02-14T11:47:08.909Z,97327.19
2019-02-14T11:48:12.333Z,97322.39
2019-02-14T11:49:15.769Z,97319.66
2019-02-14T11:50:19.361Z,97318.69
2019-02-14T11:51:22.803Z,97315.05
2019-02-14T11:52:26.324Z,97322.14
2019-02-14T11:53:29.778Z,97331.22
2019-02-14T11:54:33.213Z,97331.22
2019-02-14T11:55:37.647Z,97332.02
2019-02-14T11:56:41.171Z,97334.14
2019-02-14T11:57:44.620Z,97329.80
2019-02-14T11:58:48.066Z,97328.00
2019-02-14T11:59:51.503Z,97315.07
2019-02-14T12:00:54.937Z,97312.50
2019-02-14T12:01:58.396Z,97316.88
2019-02-14T12:03:01.866Z,97312.45
2019-02-14T12:04:05.375Z,97318.55
2019-02-14T12:05:08.893Z,97325.80
2019-02-14T12:06:17.553Z,97325.23
2019-02-14T12:07:17.559Z,97331.24
2019-02-14T12:08:21.033Z,97330.31
2019-02-14T12:09:24.460Z,97317.20
2019-02-14T12:10:27.902Z,97324.98
2019-02-14T12:11:31.413Z,97318.64
2019-02-14T12:12:34.985Z,97316.62
2019-02-14T12:13:39.560Z,97316.67
2019-02-14T12:14:43.054Z,97317.63
2019-02-14T12:15:46.489Z,97315.94
2019-02-14T12:16:49.937Z,97326.05
2019-02-14T12:17:53.370Z,97322.80
2019-02-14T12:18:56.893Z,97321.98
2019-02-14T12:20:00.416Z,97315.88
2019-02-14T12:21:03.804Z,97317.39
2019-02-14T12:22:07.317Z,97314.83
2019-02-14T12:23:10.753Z,97315.26
2019-02-14T12:24:14.210Z,97306.39
2019-02-14T12:25:28.704Z,97308.66
2019-02-14T12:26:32.194Z,97304.98